Time;durP1;ratioP1;P1;durP2;ratioP2;P2;SDS_P1;SDS_P2;PMS_P1;PMS_P2;Temp;Humidity;BMP_temperature;BMP_pressure;BME280_temperature;BME280_humidity;BME280_pressure;Samples;Min_cycle;Max_cycle;Signal;HPM_P1;HPM_P2
2020/12/07 00:02:24;;;;;;;2.20;2.10;;;;;;;0.90;94.83;93697.13;5044315;28;20297;-80
2020/12/07 00:04:51;;;;;;;2.90;2.70;;;;;;;0.82;94.45;93685.84;5027177;28;20226;-80
2020/12/07 00:07:18;;;;;;;2.80;2.60;;;;;;;0.85;94.34;93689.88;5041248;28;20243;-80
2020/12/07 00:09:45;;;;;;;3.17;2.97;;;;;;;0.88;93.70;93688.72;5040966;28;20226;-80
2020/12/07 00:12:12;;;;;;;3.00;2.80;;;;;;;0.95;94.10;93685.25;5048516;28;20224;-80
2020/12/07 00:14:39;;;;;;;3.30;3.10;;;;;;;0.91;93.09;93680.56;5026301;28;20817;-81
2020/12/07 00:17:06;;;;;;;2.53;2.43;;;;;;;0.74;93.36;93672.91;5035407;28;20300;-80
2020/12/07 00:19:33;;;;;;;2.93;2.70;;;;;;;0.73;93.85;93666.13;5025876;28;20251;-80
2020/12/07 00:22:01;;;;;;;4.73;3.07;;;;;;;0.70;94.50;93666.44;5050784;28;20311;-80
2020/12/07 00:24:27;;;;;;;3.33;3.07;;;;;;;0.65;94.23;93662.78;5042776;28;20264;-80
2020/12/07 00:26:55;;;;;;;3.20;3.00;;;;;;;0.75;94.50;93676.31;5045360;28;20676;-80
2020/12/07 00:29:22;;;;;;;2.70;2.50;;;;;;;0.83;94.21;93679.66;5037896;28;20228;-79
2020/12/07 00:31:49;;;;;;;2.80;2.60;;;;;;;0.84;94.23;93670.91;5042845;28;20284;-80
2020/12/07 00:34:18;;;;;;;3.03;2.83;;;;;;;0.80;93.55;93661.81;5030681;28;22012;-79
2020/12/07 00:36:47;;;;;;;2.87;2.67;;;;;;;0.64;93.98;93651.59;5034538;28;20249;-80
2020/12/07 00:39:14;;;;;;;2.97;2.77;;;;;;;0.60;94.33;93639.09;5038986;28;20231;-80
2020/12/07 00:41:41;;;;;;;2.70;2.50;;;;;;;0.64;94.61;93651.59;5043095;28;20264;-80
2020/12/07 00:44:08;;;;;;;3.90;3.60;;;;;;;0.81;94.27;93647.88;5030460;28;20297;-80
2020/12/07 00:46:38;;;;;;;4.17;3.87;;;;;;;0.77;94.16;93640.59;5039712;28;20245;-80
2020/12/07 00:49:05;;;;;;;2.30;2.20;;;;;;;0.67;93.76;93642.63;5042924;28;20225;-80
2020/12/07 00:51:32;;;;;;;3.30;3.10;;;;;;;0.80;93.93;93651.44;5034869;28;20607;-80
2020/12/07 00:53:59;;;;;;;3.00;2.80;;;;;;;0.83;92.83;93661.50;5042192;28;20841;-81
2020/12/07 00:56:26;;;;;;;3.30;3.10;;;;;;;0.72;92.97;93674.06;5042470;28;20672;-80
2020/12/07 00:58:53;;;;;;;2.83;2.63;;;;;;;0.63;93.62;93696.66;5023170;28;20655;-81
2020/12/07 01:01:21;;;;;;;2.87;2.77;;;;;;;0.57;93.75;93712.94;5042263;28;20213;-80
2020/12/07 01:03:48;;;;;;;2.43;2.30;;;;;;;0.53;95.00;93740.19;5025234;28;20640;-79
2020/12/07 01:06:16;;;;;;;3.20;3.00;;;;;;;0.54;94.82;93750.41;5052690;28;20230;-80
2020/12/07 01:08:43;;;;;;;3.07;2.87;;;;;;;0.63;95.15;93761.53;5041352;28;20551;-80
2020/12/07 01:11:11;;;;;;;2.93;2.73;;;;;;;0.58;94.67;93776.84;5043854;28;20656;-80
2020/12/07 01:13:40;;;;;;;3.03;2.83;;;;;;;0.68;94.79;93797.38;5037684;28;20244;-80
2020/12/07 01:16:08;;;;;;;3.73;3.53;;;;;;;0.69;94.55;93815.38;5040817;28;20249;-80
2020/12/07 01:18:37;;;;;;;2.47;2.33;;;;;;;0.78;94.08;93809.19;5038552;28;20234;-80
2020/12/07 01:21:04;;;;;;;2.90;2.70;;;;;;;0.73;94.38;93795.91;5033589;28;20228;-80
2020/12/07 01:23:31;;;;;;;3.10;2.97;;;;;;;0.67;94.07;93780.19;5061609;28;20277;-80
2020/12/07 01:25:58;;;;;;;2.80;2.60;;;;;;;0.70;94.24;93779.84;5029067;28;20219;-80
2020/12/07 01:28:25;;;;;;;2.87;2.67;;;;;;;0.74;94.23;93771.56;5020711;28;20231;-80
2020/12/07 01:30:52;;;;;;;2.70;2.60;;;;;;;0.80;94.25;93744.09;5037265;28;20245;-80
2020/12/07 01:33:21;;;;;;;3.30;3.10;;;;;;;0.64;94.09;93711.28;5028112;28;20778;-80
2020/12/07 01:35:50;;;;;;;2.87;2.67;;;;;;;0.31;95.00;93697.66;5029825;28;20321;-80
2020/12/07 01:38:17;;;;;;;3.03;2.83;;;;;;;0.56;94.83;93721.69;5032840;28;20241;-80
2020/12/07 01:40:44;;;;;;;2.90;2.70;;;;;;;0.71;94.78;93719.97;5041318;28;20610;-81
2020/12/07 01:43:11;;;;;;;1.83;1.73;;;;;;;0.75;94.04;93736.84;5036902;28;20317;-81
2020/12/07 01:45:39;;;;;;;2.67;2.47;;;;;;;0.74;93.73;93740.41;5040896;28;20216;-80
2020/12/07 01:48:09;;;;;;;2.53;2.33;;;;;;;0.72;93.50;93751.94;5029109;28;20633;-80
2020/12/07 01:50:36;;;;;;;2.27;2.07;;;;;;;0.61;94.47;93766.09;5058863;28;20609;-81
2020/12/07 01:53:04;;;;;;;2.80;2.60;;;;;;;0.59;94.56;93786.22;5047921;28;20582;-81
2020/12/07 01:55:31;;;;;;;2.40;2.30;;;;;;;0.59;94.62;93794.03;5029880;28;20228;-82
2020/12/07 01:57:59;;;;;;;2.10;2.00;;;;;;;0.64;94.07;93820.28;5037949;28;20221;-80
2020/12/07 02:00:27;;;;;;;2.43;2.23;;;;;;;0.62;94.58;93814.44;5023084;28;20225;-81
2020/12/07 02:03:03;;;;;;;2.70;2.53;;;;;;;0.64;94.68;93812.50;5043671;28;20285;-81
2020/12/07 02:05:31;;;;;;;2.17;2.07;;;;;;;0.63;94.88;93800.47;5027156;28;20307;-81
2020/12/07 02:08:16;;;;;;;2.47;2.30;;;;;;;0.64;94.94;93801.28;5024142;28;20219;-81
2020/12/07 02:10:50;;;;;;;2.63;2.43;;;;;;;0.63;94.25;93799.66;5028739;28;20257;-81
2020/12/07 02:13:22;;;;;;;2.73;2.57;;;;;;;0.55;94.84;93795.34;5036786;28;20473;-80
2020/12/07 02:15:49;;;;;;;2.27;2.07;;;;;;;0.56;95.21;93795.19;5040832;28;20216;-80
2020/12/07 02:18:21;;;;;;;2.37;2.23;;;;;;;0.62;94.63;93793.69;5039826;28;20235;-80
2020/12/07 02:20:50;;;;;;;2.30;2.10;;;;;;;0.83;94.34;93796.50;5032313;28;20217;-80
2020/12/07 02:23:36;;;;;;;3.10;2.90;;;;;;;0.82;94.16;93794.91;5041166;28;20235;-80
2020/12/07 02:26:13;;;;;;;2.17;2.07;;;;;;;0.85;93.56;93791.94;5045915;28;20306;-81
2020/12/07 02:28:40;;;;;;;1.97;1.87;;;;;;;0.91;93.27;93782.66;5016485;28;20295;-80
2020/12/07 02:31:09;;;;;;;3.10;2.90;;;;;;;0.92;92.76;93788.69;5025649;28;20296;-80
2020/12/07 02:33:38;;;;;;;2.63;2.50;;;;;;;0.85;93.38;93807.53;5039022;28;20601;-80
2020/12/07 02:36:09;;;;;;;2.10;2.00;;;;;;;0.71;93.65;93823.00;5045293;28;20225;-80
2020/12/07 02:38:39;;;;;;;1.93;1.83;;;;;;;0.68;93.84;93829.34;5020836;28;20311;-81
2020/12/07 02:41:06;;;;;;;2.87;2.67;;;;;;;0.62;94.09;93831.78;5046439;28;20309;-81
2020/12/07 02:43:34;;;;;;;2.10;2.00;;;;;;;0.70;93.97;93837.78;5033283;28;20720;-81
2020/12/07 02:46:02;;;;;;;2.20;2.10;;;;;;;0.73;93.48;93837.44;5045645;28;20223;-80
2020/12/07 02:48:31;;;;;;;2.20;2.10;;;;;;;0.85;93.18;93830.91;5025827;28;20657;-81
2020/12/07 02:51:03;;;;;;;2.47;2.37;;;;;;;0.80;92.92;93827.19;5025859;28;20230;-81
2020/12/07 02:53:32;;;;;;;1.97;1.87;;;;;;;0.75;93.01;93832.91;5045553;28;20316;-82
2020/12/07 02:55:59;;;;;;;1.63;1.53;;;;;;;0.76;92.92;93841.50;5045303;28;20234;-82
2020/12/07 02:58:28;;;;;;;1.70;1.60;;;;;;;0.75;92.76;93845.06;5040726;28;20319;-82
2020/12/07 03:00:57;;;;;;;2.33;2.17;;;;;;;0.75;92.61;93845.88;5062946;28;20299;-82
2020/12/07 03:03:25;;;;;;;2.83;2.63;;;;;;;0.80;93.10;93848.75;5022682;28;20250;-82
2020/12/07 03:05:52;;;;;;;2.77;2.57;;;;;;;0.81;92.77;93858.16;5018857;28;20297;-82
2020/12/07 03:08:19;;;;;;;1.60;1.50;;;;;;;0.80;92.46;93853.94;5022152;28;20220;-82
2020/12/07 03:10:50;;;;;;;2.30;2.20;;;;;;;0.82;92.99;93846.81;5044617;28;20215;-82
2020/12/07 03:13:17;;;;;;;1.67;1.57;;;;;;;0.71;92.83;93839.38;5037905;28;20237;-82
2020/12/07 03:15:53;;;;;;;2.70;2.60;;;;;;;0.77;92.52;93845.69;5028080;28;20235;-81
2020/12/07 03:18:24;;;;;;;1.70;1.60;;;;;;;0.83;92.20;93856.22;5021390;28;20643;-81
2020/12/07 03:20:56;;;;;;;1.33;1.23;;;;;;;0.71;92.68;93860.16;5016658;28;20514;-81
2020/12/07 03:23:23;;;;;;;1.53;1.43;;;;;;;0.72;92.66;93869.56;5032486;28;20235;-81
2020/12/07 03:25:51;;;;;;;1.43;1.27;;;;;;;0.79;92.91;93873.09;5041676;28;20215;-81
2020/12/07 03:28:22;;;;;;;1.70;1.60;;;;;;;0.70;92.43;93866.31;5015541;28;20242;-81
2020/12/07 03:30:49;;;;;;;1.83;1.73;;;;;;;0.60;92.47;93870.91;5041069;28;20224;-81
2020/12/07 03:33:16;;;;;;;1.70;1.60;;;;;;;0.71;92.36;93870.53;5028233;28;20225;-81
2020/12/07 03:35:44;;;;;;;2.80;2.60;;;;;;;0.72;93.03;93872.16;5028519;28;20228;-81
2020/12/07 03:38:12;;;;;;;1.83;1.73;;;;;;;0.76;92.31;93878.66;5025923;28;20232;-81
2020/12/07 03:40:39;;;;;;;1.70;1.60;;;;;;;0.73;93.23;93875.56;5029384;28;20505;-81
2020/12/07 03:43:14;;;;;;;3.00;2.30;;;;;;;0.63;93.30;93867.97;5035604;28;20478;-81
2020/12/07 03:45:43;;;;;;;2.67;2.47;;;;;;;0.63;92.93;93873.16;5019048;28;20242;-81
2020/12/07 03:48:14;;;;;;;2.10;2.00;;;;;;;0.61;92.73;93875.13;5053938;28;20241;-81
2020/12/07 03:50:41;;;;;;;1.33;1.23;;;;;;;0.64;93.49;93885.19;5050892;28;20717;-80
2020/12/07 03:53:08;;;;;;;2.00;1.90;;;;;;;0.64;92.87;93885.19;5048404;28;20243;-80
2020/12/07 03:55:36;;;;;;;1.80;1.70;;;;;;;0.59;93.08;93887.47;5051469;28;20222;-81
2020/12/07 03:58:09;;;;;;;1.90;1.80;;;;;;;0.57;92.84;93894.59;5020886;28;20310;-80
2020/12/07 04:00:37;;;;;;;2.40;2.20;;;;;;;0.58;93.34;93891.03;5036756;28;20258;-81
2020/12/07 04:03:09;;;;;;;2.00;1.90;;;;;;;0.65;93.63;93892.00;5044362;28;20227;-81
2020/12/07 04:05:45;;;;;;;2.07;1.97;;;;;;;0.76;93.34;93894.22;5037306;28;20228;-81
2020/12/07 04:08:15;;;;;;;3.83;3.53;;;;;;;0.67;92.64;93899.59;5044035;28;20256;-81
2020/12/07 04:10:45;;;;;;;2.30;2.20;;;;;;;0.67;92.41;93897.81;5044483;28;20841;-81
2020/12/07 04:13:12;;;;;;;1.73;1.63;;;;;;;0.50;93.76;93904.03;5041878;28;20253;-81
2020/12/07 04:15:40;;;;;;;2.57;2.37;;;;;;;0.63;93.19;93906.09;5040427;28;20237;-80
2020/12/07 04:18:27;;;;;;;1.63;1.53;;;;;;;0.52;93.72;93897.69;5043089;28;20241;-81
2020/12/07 04:20:54;;;;;;;2.40;2.30;;;;;;;0.57;93.73;93899.78;5040232;28;20573;-81
2020/12/07 04:23:21;;;;;;;1.63;1.53;;;;;;;0.52;93.64;93896.88;5044263;28;20229;-81
2020/12/07 04:25:48;;;;;;;1.47;1.37;;;;;;;0.53;93.92;93899.31;5043389;28;20220;-81
2020/12/07 04:28:19;;;;;;;2.23;2.10;;;;;;;0.52;93.52;93899.47;5029766;28;20324;-80
2020/12/07 04:30:47;;;;;;;1.73;1.63;;;;;;;0.52;93.76;93897.69;5026108;28;20699;-80
2020/12/07 04:33:13;;;;;;;3.83;1.80;;;;;;;0.54;93.22;93900.09;5035036;28;20230;-80
2020/12/07 04:35:40;;;;;;;2.23;2.13;;;;;;;0.54;93.47;93900.09;5034872;28;20454;-80
2020/12/07 04:38:07;;;;;;;1.97;1.87;;;;;;;0.53;93.96;93903.69;5046139;28;20227;-81
2020/12/07 04:40:35;;;;;;;2.03;1.93;;;;;;;0.58;93.58;93901.41;5044805;28;20250;-80
2020/12/07 04:43:03;;;;;;;1.10;1.10;;;;;;;0.60;94.08;93909.84;5040628;28;20426;-81
2020/12/07 04:45:31;;;;;;;1.23;1.17;;;;;;;0.68;93.69;93911.59;5043076;28;20229;-79
2020/12/07 04:48:00;;;;;;;1.77;1.67;;;;;;;0.65;93.30;93902.38;5025603;28;20225;-81
2020/12/07 04:50:29;;;;;;;2.03;1.93;;;;;;;0.62;92.85;93902.69;5040447;28;20315;-80
2020/12/07 04:52:58;;;;;;;1.83;1.40;;;;;;;0.60;93.15;93889.06;5031617;28;20289;-80
2020/12/07 04:55:26;;;;;;;1.53;1.43;;;;;;;0.63;92.89;93886.13;5034865;28;20703;-80
2020/12/07 04:57:54;;;;;;;1.73;1.63;;;;;;;0.55;93.56;93896.56;5045207;28;20243;-81
2020/12/07 05:00:23;;;;;;;2.10;1.83;;;;;;;0.52;93.38;93902.06;5037534;28;20720;-79
2020/12/07 05:02:52;;;;;;;1.67;1.57;;;;;;;0.66;93.32;93906.59;5026385;28;20338;-80
2020/12/07 05:05:20;;;;;;;1.80;1.70;;;;;;;0.64;92.91;93905.09;5044341;28;20682;-79
2020/12/07 05:07:49;;;;;;;1.63;1.53;;;;;;;0.44;92.89;93909.88;5039382;28;20414;-80
2020/12/07 05:10:21;;;;;;;1.73;1.63;;;;;;;0.30;92.88;93923.53;5039515;28;20776;-80
2020/12/07 05:12:52;;;;;;;1.33;1.23;;;;;;;0.26;94.07;93921.25;5043506;28;20415;-79
2020/12/07 05:15:22;;;;;;;1.87;1.77;;;;;;;0.20;93.97;93927.09;5043564;28;20254;-79
2020/12/07 05:17:56;;;;;;;1.70;1.60;;;;;;;0.13;94.26;93931.31;5065739;28;20216;-79
2020/12/07 05:20:25;;;;;;;1.30;1.20;;;;;;;0.03;93.88;93935.84;5044365;28;20843;-79
2020/12/07 05:22:52;;;;;;;1.50;1.40;;;;;;;-0.01;94.76;93932.75;5036112;28;20224;-79
2020/12/07 05:25:19;;;;;;;1.53;1.43;;;;;;;-0.12;94.48;93940.06;5040585;28;20257;-79
2020/12/07 05:27:48;;;;;;;2.07;1.97;;;;;;;-0.12;95.37;93945.25;5023674;28;20288;-78
2020/12/07 05:30:23;;;;;;;1.70;1.60;;;;;;;-0.13;95.53;93933.25;5045962;28;20218;-78
2020/12/07 05:32:50;;;;;;;2.10;2.00;;;;;;;-0.16;95.82;93943.94;5033312;28;20803;-79
2020/12/07 05:35:17;;;;;;;1.73;1.63;;;;;;;-0.19;95.10;93939.06;5038935;28;20259;-78
2020/12/07 05:37:45;;;;;;;1.37;1.27;;;;;;;-0.01;95.53;93953.50;5036477;28;20529;-78
2020/12/07 05:40:13;;;;;;;1.90;1.80;;;;;;;0.00;95.10;93964.72;5031664;28;20256;-78
2020/12/07 05:42:40;;;;;;;2.00;1.90;;;;;;;-0.01;94.86;93968.25;5044945;28;20249;-78
2020/12/07 05:45:08;;;;;;;1.83;1.73;;;;;;;-0.04;95.36;93963.41;5049731;28;20250;-78
2020/12/07 05:47:38;;;;;;;2.00;1.90;;;;;;;-0.03;95.34;93965.81;5057817;28;20479;-78
2020/12/07 05:50:07;;;;;;;2.00;1.90;;;;;;;-0.01;95.04;93973.44;5057869;28;20228;-78
2020/12/07 05:52:52;;;;;;;3.30;2.20;;;;;;;0.01;95.29;93966.34;5035414;28;20300;-78
2020/12/07 05:55:21;;;;;;;2.27;2.07;;;;;;;0.02;95.32;93973.13;5030633;28;20663;-78
2020/12/07 05:57:58;;;;;;;2.50;2.30;;;;;;;-0.07;95.59;93968.91;5042507;28;20217;-78
2020/12/07 06:00:25;;;;;;;2.30;2.10;;;;;;;-0.04;95.10;93963.41;5050822;28;20319;-78
2020/12/07 06:02:54;;;;;;;2.33;2.23;;;;;;;-0.07;95.42;93968.91;5045335;28;20729;-78
2020/12/07 06:05:22;;;;;;;1.87;1.77;;;;;;;0.07;95.38;93965.66;5033564;28;20320;-77
2020/12/07 06:07:55;;;;;;;2.33;2.23;;;;;;;0.00;95.25;93964.72;5031259;28;20276;-78
2020/12/07 06:10:26;;;;;;;3.63;3.33;;;;;;;0.10;95.29;93965.38;5034816;28;20225;-78
2020/12/07 06:12:57;;;;;;;3.23;3.03;;;;;;;0.18;94.76;93973.16;5026494;28;20661;-77
2020/12/07 06:15:26;;;;;;;3.00;2.80;;;;;;;0.08;94.52;93972.47;5041422;28;20719;-78
2020/12/07 06:17:53;;;;;;;2.63;2.53;;;;;;;0.06;94.07;93982.19;5048642;28;20241;-77
2020/12/07 06:20:31;;;;;;;2.70;2.50;;;;;;;-0.03;94.16;93973.59;5044433;28;20228;-77
2020/12/07 06:23:01;;;;;;;3.63;3.43;;;;;;;-0.03;93.96;93975.38;5038411;28;20308;-77
2020/12/07 06:25:30;;;;;;;2.40;2.30;;;;;;;-0.08;93.86;93982.84;5048300;28;20543;-78
2020/12/07 06:28:01;;;;;;;2.70;2.60;;;;;;;0.01;94.28;93981.88;5042435;28;20217;-77
2020/12/07 06:30:35;;;;;;;2.90;2.80;;;;;;;0.04;94.22;93985.94;5035133;28;20566;-77
2020/12/07 06:33:07;;;;;;;2.10;2.00;;;;;;;-0.05;94.42;93998.06;5047424;28;20779;-77
2020/12/07 06:35:43;;;;;;;4.57;3.43;;;;;;;-0.02;94.71;94001.16;5046914;28;20643;-77
2020/12/07 06:38:11;;;;;;;2.03;1.93;;;;;;;-0.07;94.14;94000.03;5028040;28;20745;-78
2020/12/07 06:40:39;;;;;;;2.13;1.93;;;;;;;-0.04;95.00;94004.88;5034770;28;20312;-79
2020/12/07 06:43:17;;;;;;;2.40;2.20;;;;;;;-0.01;94.46;94009.75;5044539;28;20502;-78
2020/12/07 06:45:44;;;;;;;2.00;1.90;;;;;;;-0.03;94.80;94006.50;5029663;28;20304;-78
2020/12/07 06:48:12;;;;;;;2.47;2.37;;;;;;;0.09;94.62;94009.59;5044905;28;20302;-78
2020/12/07 06:50:40;;;;;;;2.20;2.10;;;;;;;0.09;94.49;94004.41;5045102;28;20632;-78
2020/12/07 06:53:36;;;;;;;1.83;1.73;;;;;;;0.19;94.38;94010.28;5042358;28;20756;-78
2020/12/07 06:56:03;;;;;;;1.67;1.57;;;;;;;0.07;94.75;94007.16;5049591;28;20307;-79
2020/12/07 06:58:32;;;;;;;1.67;1.57;;;;;;;0.25;94.04;94010.41;5036271;28;20227;-78
2020/12/07 07:01:10;;;;;;;1.50;1.40;;;;;;;0.21;93.87;94014.31;5045321;28;20310;-79
2020/12/07 07:03:46;;;;;;;1.30;1.20;;;;;;;0.15;94.15;94014.13;5027956;28;20325;-79
2020/12/07 07:06:17;;;;;;;2.00;1.90;;;;;;;0.05;93.85;94022.06;5045517;28;20487;-78
2020/12/07 07:08:45;;;;;;;2.87;2.67;;;;;;;0.06;94.20;94015.09;5040726;28;20241;-79
2020/12/07 07:11:12;;;;;;;2.20;2.10;;;;;;;0.06;94.07;94026.28;5044881;28;20488;-79
2020/12/07 07:13:39;;;;;;;2.50;2.30;;;;;;;0.16;93.62;94029.53;5038277;28;20227;-78
2020/12/07 07:16:06;;;;;;;2.23;2.13;;;;;;;0.09;94.26;94026.00;5060360;28;20219;-79
2020/12/07 07:18:33;;;;;;;1.63;1.37;;;;;;;0.04;94.60;94030.81;5044410;28;20463;-78
2020/12/07 07:21:01;;;;;;;2.00;1.90;;;;;;;0.03;94.34;94031.81;5039884;28;20221;-78
2020/12/07 07:23:28;;;;;;;1.57;1.47;;;;;;;0.06;94.30;94036.66;5028963;28;20507;-78
2020/12/07 07:26:12;;;;;;;2.27;2.07;;;;;;;0.16;93.92;94039.91;5040027;28;20249;-79
2020/12/07 07:28:39;;;;;;;1.97;1.87;;;;;;;0.21;94.05;94045.44;5006122;28;20238;-78
2020/12/07 07:31:07;;;;;;;1.80;1.70;;;;;;;0.36;93.65;94047.38;5044860;28;20221;-79
2020/12/07 07:33:34;;;;;;;1.80;1.70;;;;;;;0.41;93.47;94056.31;5043867;28;20653;-79
2020/12/07 07:36:01;;;;;;;1.60;1.50;;;;;;;0.50;93.13;94050.16;5036456;28;20216;-79
2020/12/07 07:38:30;;;;;;;2.37;2.27;;;;;;;0.55;93.64;94062.66;5030107;28;20626;-79
2020/12/07 07:40:58;;;;;;;1.67;1.57;;;;;;;0.64;92.99;94072.06;5038313;28;20295;-79
2020/12/07 07:43:25;;;;;;;2.17;2.07;;;;;;;0.66;92.19;94059.75;5031157;28;20233;-79
2020/12/07 07:45:58;;;;;;;1.57;1.47;;;;;;;0.70;92.59;94061.03;5038913;28;20239;-79
2020/12/07 07:48:30;;;;;;;2.10;1.93;;;;;;;0.73;92.07;94078.88;5042955;28;20225;-79
2020/12/07 07:51:23;;;;;;;2.17;2.00;;;;;;;0.78;92.47;94081.78;5038384;28;20305;-79
2020/12/07 07:54:16;;;;;;;2.83;2.63;;;;;;;0.84;91.61;94077.75;5043150;28;20250;-79
2020/12/07 08:16:18;;;;;;;1.63;1.30;;;;;;;1.36;89.35;94067.72;5040139;28;20226;-79
2020/12/07 08:18:45;;;;;;;1.70;1.60;;;;;;;1.37;89.83;94074.56;5029746;28;20491;-80
2020/12/07 08:21:14;;;;;;;1.10;1.00;;;;;;;1.43;89.66;94073.88;5043572;28;20261;-79
2020/12/07 08:23:43;;;;;;;1.30;1.20;;;;;;;1.45;88.85;94075.50;5027724;28;20219;-80
2020/12/07 08:26:18;;;;;;;1.73;1.50;;;;;;;1.38;88.72;94085.78;5042844;28;20304;-80
2020/12/07 08:28:48;;;;;;;1.30;1.20;;;;;;;1.34;89.85;94076.66;5014558;28;20242;-80
2020/12/07 08:31:17;;;;;;;1.43;1.33;;;;;;;1.32;88.99;94102.03;5030724;28;20226;-80
2020/12/07 08:33:56;;;;;;;1.37;1.27;;;;;;;1.30;89.39;94099.59;5025310;28;20716;-80
2020/12/07 08:36:23;;;;;;;2.00;1.90;;;;;;;1.33;88.76;94107.03;5019322;28;20246;-80
2020/12/07 08:38:51;;;;;;;1.70;1.33;;;;;;;1.29;88.53;94116.16;5020229;28;20786;-80
2020/12/07 08:41:22;;;;;;;1.53;1.43;;;;;;;1.24;88.06;94130.63;5041402;28;20692;-79
2020/12/07 08:43:51;;;;;;;2.13;1.97;;;;;;;1.22;88.30;94120.38;5031950;28;20255;-80
2020/12/07 08:46:20;;;;;;;2.00;1.70;;;;;;;1.21;88.25;94128.34;5017663;28;20310;-80
2020/12/07 08:48:47;;;;;;;1.70;1.60;;;;;;;1.25;88.45;94127.03;5025250;28;20321;-80
2020/12/07 08:51:14;;;;;;;3.10;2.90;;;;;;;1.24;88.50;94123.63;5033727;28;20694;-80
2020/12/07 08:53:41;;;;;;;2.67;2.47;;;;;;;1.27;87.66;94141.47;5039604;28;20316;-80
2020/12/07 08:56:10;;;;;;;1.73;1.63;;;;;;;1.27;88.81;94141.47;5044352;28;20227;-80
2020/12/07 08:58:37;;;;;;;1.40;1.30;;;;;;;1.30;88.89;94151.56;5028251;28;20704;-80
2020/12/07 09:01:06;;;;;;;1.30;1.20;;;;;;;1.29;89.57;94154.34;5037765;28;20444;-80
2020/12/07 09:03:34;;;;;;;2.20;2.10;;;;;;;1.26;90.09;94165.03;5029152;28;20282;-81
2020/12/07 09:06:01;;;;;;;1.70;1.60;;;;;;;1.25;89.58;94169.41;5036366;28;20247;-81
2020/12/07 09:08:28;;;;;;;1.90;1.70;;;;;;;1.27;88.89;94166.66;5027570;28;20295;-80
2020/12/07 09:10:55;;;;;;;3.10;2.83;;;;;;;1.25;88.71;94164.22;5039320;28;20243;-81
2020/12/07 09:13:23;;;;;;;2.10;2.00;;;;;;;1.20;88.36;94161.31;5030319;28;20259;-81
2020/12/07 09:15:50;;;;;;;2.80;2.60;;;;;;;1.20;88.50;94161.31;5044871;28;20414;-81
2020/12/07 09:18:19;;;;;;;3.20;3.00;;;;;;;1.28;89.13;94169.13;5036092;28;20758;-81
2020/12/07 09:20:46;;;;;;;3.80;2.33;;;;;;;1.33;88.85;94166.00;5037690;28;20246;-81
2020/12/07 09:23:13;;;;;;;3.53;3.20;;;;;;;1.48;88.93;94156.56;5039462;28;20379;-81
2020/12/07 09:25:40;;;;;;;1.47;1.37;;;;;;;1.70;87.83;94147.25;5035671;28;20301;-82
2020/12/07 09:28:06;;;;;;;2.03;1.93;;;;;;;1.80;88.04;94140.06;5040477;28;20281;-82
2020/12/07 09:30:37;;;;;;;2.53;2.40;;;;;;;1.90;88.08;94145.06;5043527;28;20269;-81
2020/12/07 09:33:05;;;;;;;2.83;2.63;;;;;;;1.99;87.08;94142.25;5042264;28;20350;-82
2020/12/07 09:35:33;;;;;;;3.10;2.90;;;;;;;2.18;87.29;94151.47;5043624;28;20233;-82
2020/12/07 09:38:00;;;;;;;1.90;1.80;;;;;;;2.35;85.96;94139.19;5039355;28;20212;-81
2020/12/07 09:40:27;;;;;;;2.00;1.90;;;;;;;2.47;85.11;94145.63;5040589;28;20253;-81
2020/12/07 09:42:54;;;;;;;1.80;1.70;;;;;;;2.48;84.59;94136.84;5039867;28;20525;-81
2020/12/07 09:45:21;;;;;;;1.67;1.53;;;;;;;2.45;83.65;94131.97;5047051;28;20289;-82
2020/12/07 09:47:48;;;;;;;1.70;1.60;;;;;;;2.44;82.32;94139.94;5047315;28;20243;-82
2020/12/07 09:50:15;;;;;;;5.03;1.60;;;;;;;2.32;82.32;94141.31;5028218;28;20296;-81
2020/12/07 09:52:42;;;;;;;2.00;1.90;;;;;;;2.09;84.03;94138.66;5032386;28;20243;-81
2020/12/07 09:55:09;;;;;;;2.43;2.23;;;;;;;2.05;84.38;94140.78;5032687;28;20231;-81
2020/12/07 10:55:22;;;;;;;1.80;1.70;;;;;;;4.59;78.59;94117.47;6169954;22;888054;-78
2020/12/07 10:57:51;;;;;;;2.63;2.43;;;;;;;4.57;76.90;94130.72;6010285;23;20205;-78
2020/12/07 11:00:18;;;;;;;2.03;1.93;;;;;;;4.42;77.10;94131.72;6083783;23;20264;-78
2020/12/07 11:02:45;;;;;;;1.87;1.77;;;;;;;4.08;76.04;94129.69;6083780;23;20196;-79
2020/12/07 11:05:12;;;;;;;1.83;1.73;;;;;;;3.60;78.14;94118.84;6092481;23;20279;-78
2020/12/07 11:07:40;;;;;;;1.70;1.60;;;;;;;3.34;79.92;94116.63;6091364;23;20229;-78
2020/12/07 11:10:08;;;;;;;1.60;1.50;;;;;;;3.45;79.19;94129.22;6095278;23;20238;-78
2020/12/07 11:12:38;;;;;;;2.00;1.90;;;;;;;3.47;79.25;94127.25;6094335;23;20197;-79
2020/12/07 11:15:04;;;;;;;1.90;1.80;;;;;;;3.55;79.96;94140.22;6095393;23;20201;-78
2020/12/07 11:17:31;;;;;;;1.10;1.10;;;;;;;3.46;79.54;94136.06;6095037;23;20275;-78
2020/12/07 11:19:58;;;;;;;1.57;1.47;;;;;;;3.52;79.29;94145.78;6097677;23;20777;-78
2020/12/07 11:22:25;;;;;;;1.60;1.43;;;;;;;3.71;78.91;94147.06;6089454;23;20224;-78
2020/12/07 11:24:52;;;;;;;1.27;1.10;;;;;;;4.05;77.15;94143.94;6089331;23;20770;-78
2020/12/07 11:27:36;;;;;;;1.67;1.57;;;;;;;4.06;77.77;94137.72;6094976;23;20212;-78
2020/12/07 11:30:03;;;;;;;1.73;1.63;;;;;;;3.92;78.61;94128.91;6094692;23;20228;-79
2020/12/07 11:32:30;;;;;;;1.53;1.43;;;;;;;4.46;77.91;94127.75;6094861;23;20213;-79
2020/12/07 11:34:57;;;;;;;1.77;1.67;;;;;;;5.13;74.86;94135.28;6094679;23;20730;-79
2020/12/07 11:37:24;;;;;;;1.57;1.47;;;;;;;5.03;73.48;94117.28;6094118;23;20265;-78
2020/12/07 11:39:54;;;;;;;1.53;1.43;;;;;;;4.93;73.09;94108.13;6095571;23;20221;-78
2020/12/07 11:42:35;;;;;;;0.90;0.90;;;;;;;4.70;74.59;94109.13;6116909;23;20211;-77
2020/12/07 11:45:03;;;;;;;1.50;1.40;;;;;;;4.44;74.59;94108.84;6096579;23;20204;-78
2020/12/07 11:47:30;;;;;;;2.13;2.03;;;;;;;4.25;75.82;94108.44;6090671;23;20195;-78
2020/12/07 11:49:58;;;;;;;2.53;2.33;;;;;;;3.51;78.63;94110.28;6088108;23;20257;-77
2020/12/07 11:52:25;;;;;;;2.87;2.40;;;;;;;3.14;79.97;94111.94;6089232;23;20287;-78
2020/12/07 11:54:52;;;;;;;1.00;1.00;;;;;;;3.13;81.89;94105.09;6090623;23;20204;-79
2020/12/07 11:57:19;;;;;;;1.13;1.00;;;;;;;3.13;82.16;94110.31;6089049;23;20517;-78
2020/12/07 11:59:46;;;;;;;2.13;2.03;;;;;;;3.03;80.93;94114.97;6082854;23;20225;-78
2020/12/07 12:02:13;;;;;;;1.67;1.57;;;;;;;2.90;82.17;94104.31;6087815;23;20205;-78
2020/12/07 12:04:40;;;;;;;1.40;1.33;;;;;;;2.96;82.91;94116.66;6086928;23;20201;-78
2020/12/07 12:07:07;;;;;;;2.10;2.00;;;;;;;3.04;83.56;94115.78;6088637;23;20232;-78
2020/12/07 12:09:36;;;;;;;1.07;0.97;;;;;;;3.12;83.35;94108.69;6090787;23;20393;-77
2020/12/07 12:12:04;;;;;;;1.63;1.53;;;;;;;3.19;83.23;94123.59;6089211;23;20705;-77
2020/12/07 12:14:31;;;;;;;1.40;1.30;;;;;;;3.22;83.67;94113.66;6088415;23;20283;-78
2020/12/07 12:16:58;;;;;;;1.97;1.87;;;;;;;3.26;83.51;94114.09;6090005;23;20276;-78
2020/12/07 12:19:26;;;;;;;1.83;1.23;;;;;;;3.32;83.45;94114.22;6053910;23;20198;-78
2020/12/07 12:21:55;;;;;;;1.73;1.63;;;;;;;3.38;83.15;94104.84;6088086;23;20258;-77
2020/12/07 12:24:22;;;;;;;2.73;2.13;;;;;;;3.40;82.46;94102.91;6088213;23;20256;-78
2020/12/07 12:26:49;;;;;;;1.80;1.70;;;;;;;3.23;82.21;94102.25;6087745;23;20875;-78
2020/12/07 12:29:16;;;;;;;1.77;1.67;;;;;;;3.08;83.09;94107.41;6087244;23;20723;-77
2020/12/07 12:31:43;;;;;;;2.10;2.00;;;;;;;3.01;83.33;94098.66;6087139;23;20241;-77
2020/12/07 12:34:10;;;;;;;2.10;2.00;;;;;;;3.20;83.72;94101.78;6086802;23;20238;-77
2020/12/07 12:36:38;;;;;;;1.33;1.23;;;;;;;3.37;83.47;94100.63;6087943;23;20237;-78
2020/12/07 12:39:05;;;;;;;1.40;1.30;;;;;;;3.40;81.94;94095.06;6087397;23;20206;-77
2020/12/07 12:41:32;;;;;;;1.30;1.20;;;;;;;3.43;81.64;94105.16;6085682;23;20221;-77
2020/12/07 12:43:59;;;;;;;1.80;1.70;;;;;;;3.48;82.05;94095.00;6086515;23;20238;-78
2020/12/07 12:46:26;;;;;;;1.37;1.27;;;;;;;3.54;82.33;94099.47;6087426;23;20526;-77
2020/12/07 12:48:53;;;;;;;1.40;1.30;;;;;;;3.60;81.86;94098.78;6087663;23;20271;-77
2020/12/07 12:51:19;;;;;;;1.80;1.70;;;;;;;3.59;82.01;94102.38;6086127;23;20219;-77
2020/12/07 12:53:47;;;;;;;1.67;1.57;;;;;;;3.62;82.55;94109.81;6087333;23;20211;-77
2020/12/07 12:56:14;;;;;;;1.93;1.67;;;;;;;3.68;82.10;94109.13;6086459;23;20224;-77
2020/12/07 12:58:41;;;;;;;1.63;1.53;;;;;;;3.68;82.13;94108.31;6085806;23;20210;-77
2020/12/07 13:01:08;;;;;;;1.77;1.67;;;;;;;3.70;82.09;94104.53;6086939;23;20730;-77
2020/12/07 13:03:35;;;;;;;1.77;1.67;;;;;;;3.81;81.85;94110.28;6086967;23;20214;-78
2020/12/07 13:06:03;;;;;;;1.40;1.30;;;;;;;3.87;81.16;94113.00;6085992;23;20239;-77
2020/12/07 13:08:29;;;;;;;1.53;1.43;;;;;;;4.00;80.23;94107.94;6084399;23;20212;-77